createdAt,value
2023-02-24T00:01:52.742Z,21.67
2023-02-24T00:04:21.245Z,25.33
2023-02-24T00:06:48.871Z,28.17
2023-02-24T00:09:19.561Z,26.83
2023-02-24T00:11:55.521Z,28.05
2023-02-24T00:14:24.816Z,28.98
2023-02-24T00:16:53.504Z,26.67
2023-02-24T00:19:23.760Z,16.75
2023-02-24T00:21:51.772Z,28.50
2023-02-24T00:24:18.723Z,24.38
2023-02-24T00:26:48.524Z,34.42
2023-02-24T00:31:43.382Z,29.63
2023-02-24T00:34:15.189Z,27.05
2023-02-24T00:36:49.992Z,30.73
2023-02-24T00:39:17.317Z,32.60
2023-02-24T00:41:45.213Z,31.60
2023-02-24T00:44:15.301Z,31.23
2023-02-24T00:46:45.119Z,33.47
2023-02-24T00:51:47.476Z,34.97
2023-02-24T00:54:16.588Z,34.53
2023-02-24T00:56:45.439Z,35.42
2023-02-24T00:59:48.590Z,35.07
2023-02-24T01:02:16.095Z,33.15
2023-02-24T01:04:44.760Z,31.77
2023-02-24T01:07:13.851Z,34.85
2023-02-24T01:09:41.958Z,38.22
2023-02-24T01:12:29.936Z,34.42
2023-02-24T01:14:56.891Z,38.42
2023-02-24T01:17:23.961Z,36.65
2023-02-24T01:19:50.995Z,33.60
2023-02-24T01:22:19.955Z,37.70
2023-02-24T01:24:48.624Z,36.07
2023-02-24T01:27:19.133Z,42.20
2023-02-24T01:29:49.380Z,41.78
2023-02-24T01:32:21.902Z,41.90
2023-02-24T01:34:52.244Z,35.53
2023-02-24T01:37:20.111Z,38.17
2023-02-24T01:39:48.020Z,40.42
2023-02-24T01:42:19.624Z,39.75
2023-02-24T01:44:46.984Z,38.13
2023-02-24T01:47:16.547Z,42.00
2023-02-24T01:49:46.944Z,43.95
2023-02-24T01:52:24.369Z,40.05
2023-02-24T01:54:58.107Z,38.22
2023-02-24T01:57:29.574Z,37.25
2023-02-24T02:00:11.251Z,36.70
2023-02-24T02:02:45.925Z,35.67
2023-02-24T02:05:14.278Z,38.50
2023-02-24T02:07:42.516Z,36.75
2023-02-24T02:10:10.808Z,38.40
2023-02-24T02:12:44.578Z,36.55
2023-02-24T02:15:21.649Z,38.72
2023-02-24T02:18:16.082Z,29.75
2023-02-24T02:21:24.948Z,37.20
2023-02-24T02:24:04.620Z,32.70
2023-02-24T02:29:44.951Z,41.70
2023-02-24T02:32:32.529Z,41.00
2023-02-24T02:35:25.492Z,42.25
2023-02-24T02:38:05.485Z,36.55
2023-02-24T02:40:48.953Z,36.33
2023-02-24T02:43:30.899Z,36.47
2023-02-24T02:46:37.309Z,38.70
2023-02-24T02:49:30.526Z,38.35
2023-02-24T02:52:05.845Z,41.90
2023-02-24T02:54:45.908Z,38.58
2023-02-24T02:57:23.525Z,35.53
2023-02-24T03:00:13.412Z,38.80
2023-02-24T03:02:45.340Z,29.73
2023-02-24T03:05:17.564Z,41.70
2023-02-24T03:07:52.625Z,45.15
2023-02-24T03:10:27.828Z,47.42
2023-02-24T03:12:59.966Z,46.13
2023-02-24T03:15:32.835Z,44.15
2023-02-24T03:18:12.562Z,46.20
2023-02-24T03:20:49.171Z,45.97
2023-02-24T03:23:21.229Z,39.15
2023-02-24T03:25:58.834Z,44.00
2023-02-24T03:28:37.521Z,40.85
2023-02-24T03:31:18.292Z,42.95
2023-02-24T03:34:00.665Z,39.35
2023-02-24T03:36:29.497Z,43.17
2023-02-24T03:38:58.327Z,36.92
2023-02-24T03:41:31.488Z,40.85
2023-02-24T03:44:00.132Z,36.72
2023-02-24T03:46:27.745Z,41.53
2023-02-24T03:49:13.145Z,37.40
2023-02-24T03:51:44.884Z,37.38
2023-02-24T03:54:35.983Z,37.58
2023-02-24T03:57:19.057Z,36.92
2023-02-24T04:00:22.884Z,38.92
2023-02-24T04:03:10.643Z,35.85
2023-02-24T04:05:47.624Z,37.95
2023-02-24T04:08:17.370Z,40.33
2023-02-24T04:10:58.512Z,42.28
2023-02-24T04:13:38.496Z,35.83
2023-02-24T04:16:28.149Z,34.50
2023-02-24T04:19:03.924Z,35.35
2023-02-24T04:21:34.253Z,34.40
2023-02-24T04:24:08.628Z,33.50
2023-02-24T04:26:40.423Z,38.15
2023-02-24T04:29:10.608Z,37.38
2023-02-24T04:31:39.071Z,41.65
2023-02-24T04:34:09.542Z,42.53
2023-02-24T04:36:39.043Z,35.90
2023-02-24T04:39:07.750Z,34.55
2023-02-24T04:41:35.871Z,36.00
2023-02-24T04:44:02.819Z,37.25
2023-02-24T04:46:32.540Z,40.53
2023-02-24T04:53:58.869Z,32.63
2023-02-24T04:56:25.858Z,34.83
2023-02-24T04:58:52.825Z,39.35
2023-02-24T05:01:20.019Z,36.60
2023-02-24T05:09:14.388Z,35.63
2023-02-24T05:11:43.843Z,39.45
2023-02-24T05:14:15.491Z,37.58
2023-02-24T05:16:44.155Z,40.67
2023-02-24T05:19:31.876Z,42.37
2023-02-24T05:21:59.012Z,31.60
2023-02-24T05:24:28.728Z,42.08
2023-02-24T05:29:35.580Z,33.75
2023-02-24T05:32:04.757Z,33.53
2023-02-24T05:34:33.490Z,33.17
2023-02-24T05:37:04.511Z,33.47
2023-02-24T05:39:31.523Z,34.08
2023-02-24T05:41:58.564Z,35.72
2023-02-24T05:44:26.792Z,38.50
2023-02-24T05:46:59.307Z,35.85
2023-02-24T05:49:35.690Z,36.80
2023-02-24T05:52:09.233Z,35.45
2023-02-24T05:54:41.777Z,34.50
2023-02-24T05:57:14.996Z,33.63
2023-02-24T05:59:42.979Z,30.40
2023-02-24T06:02:13.652Z,37.67
2023-02-24T06:04:46.723Z,40.10
2023-02-24T06:07:21.134Z,39.20
2023-02-24T06:09:53.844Z,40.80
2023-02-24T06:12:23.569Z,44.85
2023-02-24T06:14:50.549Z,40.50
2023-02-24T06:17:19.012Z,48.22
2023-02-24T06:19:49.539Z,39.88
2023-02-24T06:22:22.739Z,36.30
2023-02-24T06:24:50.516Z,38.97
2023-02-24T06:27:20.028Z,42.58
2023-02-24T06:29:50.067Z,41.65
2023-02-24T06:32:18.671Z,39.40
2023-02-24T06:34:46.028Z,35.58
2023-02-24T06:37:14.480Z,36.03
2023-02-24T06:39:41.600Z,34.90
2023-02-24T06:42:10.652Z,38.00
2023-02-24T06:44:39.132Z,31.25
2023-02-24T06:47:08.173Z,34.42
2023-02-24T06:49:35.167Z,33.90
2023-02-24T06:52:03.259Z,40.42
2023-02-24T06:54:30.678Z,40.00
2023-02-24T06:57:28.204Z,36.42
2023-02-24T06:59:56.215Z,45.22
2023-02-24T07:02:26.746Z,38.72
2023-02-24T07:04:55.332Z,46.95
2023-02-24T07:07:22.704Z,37.20
2023-02-24T07:09:49.697Z,45.38
2023-02-24T07:12:21.077Z,44.20
2023-02-24T07:14:50.420Z,42.15
2023-02-24T07:17:23.538Z,41.83
2023-02-24T07:19:50.449Z,39.63
2023-02-24T07:22:25.185Z,40.20
2023-02-24T07:25:00.443Z,42.83
2023-02-24T07:27:27.729Z,45.10
2023-02-24T07:29:54.694Z,44.20
2023-02-24T07:32:22.843Z,46.03
2023-02-24T07:34:50.088Z,47.13
2023-02-24T07:37:17.152Z,44.55
2023-02-24T07:39:44.142Z,41.67
2023-02-24T07:42:15.079Z,48.10
2023-02-24T07:44:46.786Z,47.22
2023-02-24T07:47:16.026Z,47.72
2023-02-24T07:49:43.313Z,47.53
2023-02-24T07:52:11.679Z,44.50
2023-02-24T07:54:39.463Z,44.08
2023-02-24T07:57:13.668Z,51.50
2023-02-24T07:59:47.640Z,46.20
2023-02-24T08:02:15.944Z,45.58
2023-02-24T08:04:50.196Z,48.78
2023-02-24T08:07:30.471Z,50.08
2023-02-24T08:10:24.491Z,53.97
2023-02-24T08:12:56.967Z,53.22
2023-02-24T08:15:26.463Z,47.03
2023-02-24T08:17:59.640Z,54.33
2023-02-24T08:20:36.127Z,56.17
2023-02-24T08:23:06.568Z,49.42
2023-02-24T08:25:36.519Z,52.95
2023-02-24T08:28:09.472Z,48.50
2023-02-24T08:30:39.687Z,49.33
2023-02-24T08:33:11.021Z,49.22
2023-02-24T08:35:44.559Z,53.22
2023-02-24T08:38:17.998Z,48.17
2023-02-24T08:40:51.693Z,46.72
2023-02-24T08:43:38.376Z,51.83
2023-02-24T08:46:12.641Z,47.78
2023-02-24T08:48:46.600Z,48.95
2023-02-24T08:51:17.939Z,57.40
2023-02-24T08:53:47.011Z,54.08
2023-02-24T08:56:24.254Z,56.88
2023-02-24T08:59:07.055Z,55.42
2023-02-24T09:01:37.567Z,52.58
2023-02-24T09:04:19.165Z,49.03
2023-02-24T09:07:10.756Z,51.88
2023-02-24T09:09:42.365Z,57.90
2023-02-24T09:12:21.965Z,62.42
2023-02-24T09:14:50.845Z,59.72
2023-02-24T09:17:20.811Z,58.25
2023-02-24T09:19:50.155Z,56.13
2023-02-24T09:22:33.425Z,62.42
2023-02-24T09:25:18.057Z,59.08
2023-02-24T09:27:52.342Z,60.15
2023-02-24T09:30:36.605Z,61.35
2023-02-24T09:33:19.188Z,58.08
2023-02-24T09:35:48.631Z,63.92
2023-02-24T09:38:17.969Z,63.97
2023-02-24T09:40:49.068Z,64.03
2023-02-24T09:43:27.999Z,61.97
2023-02-24T09:46:14.554Z,44.60
2023-02-24T09:49:05.432Z,58.28
2023-02-24T09:51:42.340Z,58.90
2023-02-24T09:54:16.430Z,52.47
2023-02-24T09:57:09.015Z,60.25
2023-02-24T10:00:22.154Z,63.97
2023-02-24T10:03:03.906Z,62.22
2023-02-24T10:05:47.398Z,58.45
2023-02-24T10:08:38.268Z,58.33
2023-02-24T10:11:09.184Z,58.45
2023-02-24T10:13:43.636Z,58.17
2023-02-24T10:16:16.648Z,59.17
2023-02-24T10:19:01.453Z,54.55
2023-02-24T10:21:49.776Z,55.42
2023-02-24T10:24:35.843Z,55.65
2023-02-24T10:27:32.982Z,48.47
2023-02-24T10:30:19.666Z,54.95
2023-02-24T10:32:54.786Z,51.75
2023-02-24T10:35:26.181Z,43.75
2023-02-24T10:37:54.129Z,52.28
2023-02-24T10:40:44.799Z,73.53
2023-02-24T10:43:18.619Z,54.22
2023-02-24T10:45:47.103Z,47.25
2023-02-24T10:48:42.984Z,44.40
2023-02-24T10:51:31.924Z,46.33
2023-02-24T10:54:23.190Z,45.33
2023-02-24T10:57:18.182Z,47.75
2023-02-24T11:04:01.644Z,43.95
2023-02-24T11:06:52.619Z,41.60
2023-02-24T11:09:30.218Z,42.45
2023-02-24T11:12:25.411Z,49.47
2023-02-24T11:15:22.235Z,47.33
2023-02-24T11:17:59.906Z,48.20
2023-02-24T11:24:53.896Z,43.33
2023-02-24T11:27:23.754Z,42.97
2023-02-24T11:30:02.603Z,41.78
2023-02-24T11:32:45.577Z,45.53
2023-02-24T11:35:23.413Z,44.25
2023-02-24T11:38:09.759Z,42.67
2023-02-24T11:40:45.113Z,37.95
2023-02-24T11:43:18.631Z,40.08
2023-02-24T11:46:07.369Z,40.55
2023-02-24T11:48:51.986Z,42.40
2023-02-24T11:51:27.587Z,42.70
2023-02-24T11:54:06.517Z,39.13
2023-02-24T11:56:48.428Z,39.63
2023-02-24T11:59:36.485Z,35.83
2023-02-24T12:02:23.653Z,41.92
2023-02-24T12:04:51.056Z,40.65
2023-02-24T12:07:23.479Z,41.25
2023-02-24T12:10:16.686Z,42.97
2023-02-24T12:12:47.994Z,45.33
2023-02-24T12:15:58.296Z,44.75
2023-02-24T12:18:41.064Z,38.50
2023-02-24T12:21:25.308Z,46.47
2023-02-24T12:23:53.777Z,44.78
2023-02-24T12:26:42.846Z,44.47
2023-02-24T12:29:42.394Z,51.85
2023-02-24T12:32:41.443Z,49.22
2023-02-24T12:35:19.935Z,44.83
2023-02-24T12:38:05.566Z,43.28
2023-02-24T12:41:13.772Z,44.70
2023-02-24T12:44:02.485Z,37.85
2023-02-24T12:46:40.103Z,46.90
2023-02-24T12:49:40.410Z,44.55
2023-02-24T12:52:16.617Z,48.88
2023-02-24T12:55:06.215Z,43.33
2023-02-24T12:58:12.207Z,44.22
2023-02-24T13:00:57.447Z,40.08
2023-02-24T13:03:49.754Z,43.00
2023-02-24T13:06:25.568Z,37.30
2023-02-24T13:09:05.781Z,38.13
2023-02-24T13:12:11.042Z,37.15
2023-02-24T13:14:43.804Z,38.20
2023-02-24T13:17:10.858Z,35.45
2023-02-24T13:19:43.572Z,34.88
2023-02-24T13:22:13.709Z,33.08
2023-02-24T13:24:42.073Z,33.38
2023-02-24T13:27:21.149Z,33.33
2023-02-24T13:29:51.927Z,35.78
2023-02-24T13:32:54.948Z,35.15
2023-02-24T13:35:22.050Z,27.17
2023-02-24T13:37:49.414Z,29.60
2023-02-24T13:40:19.112Z,32.92
2023-02-24T13:43:01.010Z,31.35
2023-02-24T13:45:29.222Z,30.92
2023-02-24T13:48:33.414Z,29.65
2023-02-24T13:55:20.001Z,33.90
2023-02-24T13:58:24.525Z,31.23
2023-02-24T14:00:52.593Z,27.42
2023-02-24T14:03:24.449Z,25.45
2023-02-24T14:05:51.920Z,23.38
2023-02-24T14:08:27.599Z,31.73
2023-02-24T14:10:57.436Z,24.67
2023-02-24T14:20:21.345Z,26.95
2023-02-24T14:22:58.868Z,26.60
2023-02-24T14:25:30.203Z,24.65
2023-02-24T14:28:25.120Z,21.40
2023-02-24T14:30:58.769Z,21.98
2023-02-24T14:34:09.863Z,24.98
2023-02-24T14:36:43.792Z,24.15
2023-02-24T14:39:26.720Z,23.80
2023-02-24T14:42:07.345Z,24.52
2023-02-24T14:44:40.135Z,23.08
2023-02-24T14:47:11.210Z,24.02
2023-02-24T14:49:38.715Z,22.75
2023-02-24T14:52:27.789Z,27.13
2023-02-24T14:55:00.850Z,24.20
2023-02-24T14:57:33.319Z,24.73
2023-02-24T15:00:17.404Z,27.45
2023-02-24T15:02:48.852Z,27.80
2023-02-24T15:05:16.880Z,25.02
2023-02-24T15:07:45.429Z,29.08
2023-02-24T15:10:25.252Z,25.25
2023-02-24T15:15:27.045Z,27.05
2023-02-24T15:18:00.247Z,29.17
2023-02-24T15:20:33.484Z,31.83
2023-02-24T15:23:01.298Z,31.05
2023-02-24T15:25:42.291Z,28.73
2023-02-24T15:28:24.894Z,31.08
2023-02-24T15:31:00.837Z,33.22
2023-02-24T15:33:37.124Z,32.33
2023-02-24T15:36:12.542Z,26.50
2023-02-24T15:38:42.827Z,31.88
2023-02-24T15:41:11.568Z,33.78
2023-02-24T15:43:48.392Z,33.00
2023-02-24T15:46:30.523Z,29.88
2023-02-24T15:49:01.838Z,27.42
2023-02-24T15:51:39.877Z,30.70
2023-02-24T15:54:13.402Z,30.33
2023-02-24T15:56:41.558Z,30.75
2023-02-24T15:59:10.471Z,25.92
2023-02-24T16:01:37.454Z,28.20
2023-02-24T16:04:09.699Z,29.30
2023-02-24T16:06:41.831Z,28.90
2023-02-24T16:09:14.346Z,27.17
2023-02-24T16:11:44.122Z,25.85
2023-02-24T16:16:42.048Z,29.42
2023-02-24T16:19:13.783Z,25.73
2023-02-24T16:21:41.342Z,26.95
2023-02-24T16:24:08.309Z,26.35
2023-02-24T16:26:39.583Z,22.13
2023-02-24T16:29:11.667Z,24.05
2023-02-24T16:31:39.582Z,28.48
2023-02-24T16:34:07.967Z,21.73
2023-02-24T16:36:35.858Z,35.85
2023-02-24T16:39:04.868Z,25.80
2023-02-24T16:41:31.881Z,28.20
2023-02-24T16:43:58.927Z,23.10
2023-02-24T16:46:32.928Z,26.00
2023-02-24T16:53:22.703Z,24.13
2023-02-24T16:55:50.698Z,30.45
2023-02-24T16:58:18.144Z,27.35
2023-02-24T17:00:48.989Z,30.98
2023-02-24T17:03:24.197Z,27.48
2023-02-24T17:05:51.878Z,35.72
2023-02-24T17:08:19.345Z,30.00
2023-02-24T17:10:47.091Z,31.38
2023-02-24T17:13:17.349Z,31.50
2023-02-24T17:15:44.582Z,28.95
2023-02-24T17:18:12.203Z,43.00
2023-02-24T17:20:40.907Z,31.58
2023-02-24T17:23:08.222Z,24.63
2023-02-24T17:25:35.185Z,31.88
2023-02-24T17:28:04.021Z,32.30
2023-02-24T17:30:34.402Z,27.63
2023-02-24T17:33:14.556Z,36.28
2023-02-24T17:35:47.065Z,34.15
2023-02-24T17:38:19.885Z,38.55
2023-02-24T17:40:47.612Z,33.95
2023-02-24T17:43:15.015Z,35.38
2023-02-24T17:45:45.041Z,32.38
2023-02-24T17:48:13.784Z,32.65
2023-02-24T17:50:43.082Z,38.90
2023-02-24T17:53:10.857Z,35.95
2023-02-24T17:55:37.885Z,26.83
2023-02-24T17:58:05.049Z,33.40
2023-02-24T18:00:32.155Z,34.08
2023-02-24T18:03:00.183Z,28.98
2023-02-24T18:05:28.593Z,36.35
2023-02-24T18:07:58.878Z,35.80
2023-02-24T18:10:27.315Z,30.73
2023-02-24T18:12:54.576Z,30.65
2023-02-24T18:15:21.545Z,36.22
2023-02-24T18:17:49.120Z,30.40
2023-02-24T18:20:16.300Z,30.13
2023-02-24T18:22:43.394Z,34.75
2023-02-24T18:25:10.522Z,35.08
2023-02-24T18:28:46.441Z,31.27
2023-02-24T18:31:16.895Z,30.17
2023-02-24T18:33:44.160Z,29.23
2023-02-24T18:36:14.325Z,34.45
2023-02-24T18:38:41.376Z,29.98
2023-02-24T18:41:27.533Z,31.30
2023-02-24T18:43:57.063Z,31.27
2023-02-24T18:46:25.775Z,29.63
2023-02-24T18:48:53.097Z,25.17
2023-02-24T18:51:22.838Z,32.78
2023-02-24T18:56:23.389Z,27.15
2023-02-24T18:58:52.765Z,36.25
2023-02-24T19:01:23.264Z,26.52
2023-02-24T19:03:51.448Z,31.00
2023-02-24T19:06:20.917Z,26.27
2023-02-24T19:11:20.707Z,37.42
2023-02-24T19:13:47.989Z,29.05
2023-02-24T19:16:16.549Z,31.45
2023-02-24T19:18:43.799Z,28.42
2023-02-24T19:21:11.141Z,32.47
2023-02-24T19:23:39.006Z,29.67
2023-02-24T19:26:07.871Z,34.60
2023-02-24T19:28:38.332Z,27.73
2023-02-24T19:31:06.115Z,30.75
2023-02-24T19:33:33.466Z,32.67
2023-02-24T19:36:00.538Z,29.20
2023-02-24T19:38:28.506Z,28.13
2023-02-24T19:40:59.373Z,24.55
2023-02-24T19:43:26.707Z,25.23
2023-02-24T19:45:54.230Z,26.40
2023-02-24T19:48:21.412Z,22.20
2023-02-24T19:50:48.649Z,20.90
2023-02-24T19:53:15.841Z,18.77
2023-02-24T19:55:49.243Z,15.90
2023-02-24T19:58:17.035Z,20.42
2023-02-24T20:00:44.058Z,18.25
2023-02-24T20:03:11.839Z,13.65
2023-02-24T20:05:39.440Z,13.88
2023-02-24T20:08:09.706Z,13.18
2023-02-24T20:10:36.851Z,12.27
2023-02-24T20:13:04.951Z,12.68
2023-02-24T20:15:36.093Z,11.07
2023-02-24T20:18:04.809Z,13.85
2023-02-24T20:20:32.039Z,9.23
2023-02-24T20:23:00.155Z,9.35
2023-02-24T20:25:27.258Z,8.68
2023-02-24T20:27:54.388Z,9.73
2023-02-24T20:30:21.627Z,8.27
2023-02-24T20:32:48.910Z,9.63
2023-02-24T20:35:21.930Z,9.15
2023-02-24T20:37:49.059Z,6.90
2023-02-24T20:40:16.611Z,5.18
2023-02-24T20:42:44.026Z,6.00
2023-02-24T20:45:12.363Z,6.70
2023-02-24T20:47:39.732Z,9.10
2023-02-24T20:50:07.197Z,12.30
2023-02-24T20:52:34.449Z,9.35
2023-02-24T20:55:01.414Z,9.57
2023-02-24T20:58:10.834Z,8.10
2023-02-24T21:00:40.108Z,9.18
2023-02-24T21:03:12.051Z,8.77
2023-02-24T21:05:39.684Z,11.95
2023-02-24T21:08:06.673Z,11.25
2023-02-24T21:10:33.716Z,11.25
2023-02-24T21:13:00.774Z,10.95
2023-02-24T21:15:27.828Z,11.20
2023-02-24T21:17:54.867Z,13.15
2023-02-24T21:20:21.847Z,10.90
2023-02-24T21:22:48.798Z,13.15
2023-02-24T21:25:15.797Z,12.63
2023-02-24T21:27:42.749Z,10.43
2023-02-24T21:30:11.245Z,8.88
2023-02-24T21:32:38.913Z,7.72
2023-02-24T21:35:06.680Z,8.70
2023-02-24T21:37:35.260Z,9.55
2023-02-24T21:40:02.745Z,7.15
2023-02-24T21:42:30.202Z,7.05
2023-02-24T21:45:02.486Z,6.03
2023-02-24T21:48:01.132Z,8.48
2023-02-24T21:50:28.324Z,8.07
2023-02-24T21:57:20.311Z,6.95
2023-02-24T21:59:47.782Z,5.35
2023-02-24T22:02:17.989Z,6.25
2023-02-24T22:04:45.352Z,4.85
2023-02-24T22:07:12.314Z,6.60
2023-02-24T22:09:39.384Z,5.95
2023-02-24T22:12:08.689Z,3.97
2023-02-24T22:14:35.747Z,3.53
2023-02-24T22:17:04.848Z,5.05
2023-02-24T22:19:41.327Z,6.63
2023-02-24T22:22:09.007Z,8.23
2023-02-24T22:25:44.793Z,7.90
2023-02-24T22:28:12.395Z,4.05
2023-02-24T22:30:39.809Z,6.35
2023-02-24T22:33:07.420Z,4.55
2023-02-24T22:36:07.926Z,5.07
2023-02-24T22:38:37.866Z,3.78
2023-02-24T22:41:09.590Z,4.00
2023-02-24T22:44:19.661Z,4.35
2023-02-24T22:46:47.807Z,5.32
2023-02-24T22:49:15.108Z,7.40
2023-02-24T22:52:51.538Z,3.72
2023-02-24T22:55:19.810Z,4.93
2023-02-24T22:57:46.852Z,2.53
2023-02-24T23:00:20.310Z,5.93
2023-02-24T23:02:47.377Z,7.15
2023-02-24T23:05:15.558Z,5.43
2023-02-24T23:07:42.851Z,4.68
2023-02-24T23:10:10.683Z,8.68
2023-02-24T23:12:37.670Z,7.47
2023-02-24T23:15:05.190Z,6.65
2023-02-24T23:17:45.262Z,11.68
2023-02-24T23:20:15.540Z,8.32
2023-02-24T23:22:43.260Z,8.43
2023-02-24T23:25:10.987Z,9.02
2023-02-24T23:27:42.005Z,8.57
2023-02-24T23:30:11.126Z,11.55
2023-02-24T23:32:38.307Z,10.15
2023-02-24T23:35:05.980Z,9.40
2023-02-24T23:37:34.162Z,11.73
2023-02-24T23:40:26.295Z,12.80
2023-02-24T23:42:54.415Z,13.00
2023-02-24T23:45:21.395Z,11.13
2023-02-24T23:47:48.451Z,12.85
2023-02-24T23:50:15.671Z,14.90
2023-02-24T23:52:42.926Z,14.95
2023-02-24T23:55:11.634Z,15.45
2023-02-24T23:57:39.568Z,9.23
